sensor_id;sensor_type;location;lat;lon;timestamp;P1;durP1;ratioP1;P2;durP2;ratioP2
13753;SDS011;6948;51.216;6.778;2023-03-01T00:01:22;9.10;;;7.37;;
13753;SDS011;6948;51.216;6.778;2023-03-01T00:03:49;8.27;;;6.80;;
13753;SDS011;6948;51.216;6.778;2023-03-01T00:06:15;9.90;;;7.13;;
13753;SDS011;6948;51.216;6.778;2023-03-01T00:08:41;9.53;;;6.60;;
13753;SDS011;6948;51.216;6.778;2023-03-01T00:13:44;7.40;;;6.07;;
13753;SDS011;6948;51.216;6.778;2023-03-01T00:16:11;8.30;;;6.63;;
13753;SDS011;6948;51.216;6.778;2023-03-01T00:18:38;6.97;;;6.27;;
13753;SDS011;6948;51.216;6.778;2023-03-01T00:21:04;9.40;;;6.40;;
13753;SDS011;6948;51.216;6.778;2023-03-01T00:23:31;8.53;;;6.43;;
13753;SDS011;6948;51.216;6.778;2023-03-01T00:25:57;8.33;;;6.83;;
13753;SDS011;6948;51.216;6.778;2023-03-01T00:28:23;8.57;;;6.50;;
13753;SDS011;6948;51.216;6.778;2023-03-01T00:30:50;7.07;;;6.37;;
13753;SDS011;6948;51.216;6.778;2023-03-01T00:33:16;11.43;;;6.77;;
13753;SDS011;6948;51.216;6.778;2023-03-01T00:35:42;8.47;;;6.77;;
13753;SDS011;6948;51.216;6.778;2023-03-01T00:38:08;7.77;;;6.33;;
13753;SDS011;6948;51.216;6.778;2023-03-01T00:40:34;8.10;;;6.50;;
13753;SDS011;6948;51.216;6.778;2023-03-01T00:43:01;9.40;;;7.03;;
13753;SDS011;6948;51.216;6.778;2023-03-01T00:45:27;11.97;;;7.50;;
13753;SDS011;6948;51.216;6.778;2023-03-01T00:47:53;8.20;;;7.10;;
13753;SDS011;6948;51.216;6.778;2023-03-01T00:50:20;9.77;;;7.07;;
13753;SDS011;6948;51.216;6.778;2023-03-01T00:52:50;11.93;;;7.43;;
13753;SDS011;6948;51.216;6.778;2023-03-01T00:55:17;10.63;;;7.30;;
13753;SDS011;6948;51.216;6.778;2023-03-01T00:57:43;9.93;;;6.57;;
13753;SDS011;6948;51.216;6.778;2023-03-01T01:00:09;7.47;;;6.67;;
13753;SDS011;6948;51.216;6.778;2023-03-01T01:02:36;8.53;;;6.40;;
13753;SDS011;6948;51.216;6.778;2023-03-01T01:05:02;7.57;;;6.77;;
13753;SDS011;6948;51.216;6.778;2023-03-01T01:07:29;9.13;;;6.73;;
13753;SDS011;6948;51.216;6.778;2023-03-01T01:09:55;8.43;;;7.10;;
13753;SDS011;6948;51.216;6.778;2023-03-01T01:12:21;8.37;;;7.17;;
13753;SDS011;6948;51.216;6.778;2023-03-01T01:14:47;9.03;;;6.97;;
13753;SDS011;6948;51.216;6.778;2023-03-01T01:17:13;8.37;;;7.07;;
13753;SDS011;6948;51.216;6.778;2023-03-01T01:19:39;10.50;;;7.40;;
13753;SDS011;6948;51.216;6.778;2023-03-01T01:22:05;9.97;;;7.23;;
13753;SDS011;6948;51.216;6.778;2023-03-01T01:24:31;8.67;;;7.77;;
13753;SDS011;6948;51.216;6.778;2023-03-01T01:26:57;9.90;;;7.03;;
13753;SDS011;6948;51.216;6.778;2023-03-01T01:29:23;9.50;;;7.23;;
13753;SDS011;6948;51.216;6.778;2023-03-01T01:31:49;8.40;;;7.50;;
13753;SDS011;6948;51.216;6.778;2023-03-01T01:34:17;8.57;;;7.60;;
13753;SDS011;6948;51.216;6.778;2023-03-01T01:36:44;9.60;;;7.70;;
13753;SDS011;6948;51.216;6.778;2023-03-01T01:39:13;14.10;;;8.10;;
13753;SDS011;6948;51.216;6.778;2023-03-01T01:41:40;8.67;;;7.77;;
13753;SDS011;6948;51.216;6.778;2023-03-01T01:44:23;8.73;;;7.53;;
13753;SDS011;6948;51.216;6.778;2023-03-01T01:46:51;9.00;;;7.73;;
13753;SDS011;6948;51.216;6.778;2023-03-01T01:52:02;9.63;;;7.50;;
13753;SDS011;6948;51.216;6.778;2023-03-01T01:54:39;10.73;;;8.00;;
13753;SDS011;6948;51.216;6.778;2023-03-01T01:57:10;11.10;;;8.03;;
13753;SDS011;6948;51.216;6.778;2023-03-01T01:59:38;11.57;;;8.00;;
13753;SDS011;6948;51.216;6.778;2023-03-01T02:02:04;10.43;;;8.40;;
13753;SDS011;6948;51.216;6.778;2023-03-01T02:04:31;10.70;;;8.47;;
13753;SDS011;6948;51.216;6.778;2023-03-01T02:06:59;9.43;;;8.10;;
13753;SDS011;6948;51.216;6.778;2023-03-01T02:09:27;10.90;;;8.20;;
13753;SDS011;6948;51.216;6.778;2023-03-01T02:11:53;12.57;;;8.80;;
13753;SDS011;6948;51.216;6.778;2023-03-01T02:14:19;12.03;;;8.77;;
13753;SDS011;6948;51.216;6.778;2023-03-01T02:16:45;11.77;;;8.10;;
13753;SDS011;6948;51.216;6.778;2023-03-01T02:19:15;9.00;;;7.57;;
13753;SDS011;6948;51.216;6.778;2023-03-01T02:22:02;10.90;;;8.23;;
13753;SDS011;6948;51.216;6.778;2023-03-01T02:27:07;10.37;;;8.37;;
13753;SDS011;6948;51.216;6.778;2023-03-01T02:29:33;9.87;;;8.23;;
13753;SDS011;6948;51.216;6.778;2023-03-01T02:31:59;10.97;;;8.30;;
13753;SDS011;6948;51.216;6.778;2023-03-01T02:34:26;10.37;;;8.53;;
13753;SDS011;6948;51.216;6.778;2023-03-01T02:36:55;10.40;;;8.40;;
13753;SDS011;6948;51.216;6.778;2023-03-01T02:39:25;10.63;;;8.40;;
13753;SDS011;6948;51.216;6.778;2023-03-01T02:41:52;9.80;;;8.80;;
13753;SDS011;6948;51.216;6.778;2023-03-01T02:44:20;10.33;;;8.87;;
13753;SDS011;6948;51.216;6.778;2023-03-01T02:46:47;10.10;;;8.23;;
13753;SDS011;6948;51.216;6.778;2023-03-01T02:49:31;10.73;;;8.70;;
13753;SDS011;6948;51.216;6.778;2023-03-01T02:52:08;10.07;;;8.50;;
13753;SDS011;6948;51.216;6.778;2023-03-01T02:54:40;9.93;;;8.30;;
13753;SDS011;6948;51.216;6.778;2023-03-01T02:57:07;12.10;;;8.90;;
13753;SDS011;6948;51.216;6.778;2023-03-01T02:59:34;12.13;;;8.70;;
13753;SDS011;6948;51.216;6.778;2023-03-01T03:02:04;10.70;;;8.90;;
13753;SDS011;6948;51.216;6.778;2023-03-01T03:04:30;11.07;;;8.47;;
13753;SDS011;6948;51.216;6.778;2023-03-01T03:06:57;11.43;;;9.03;;
13753;SDS011;6948;51.216;6.778;2023-03-01T03:09:23;12.37;;;9.40;;
13753;SDS011;6948;51.216;6.778;2023-03-01T03:11:49;11.93;;;8.90;;
13753;SDS011;6948;51.216;6.778;2023-03-01T03:14:16;11.27;;;8.90;;
13753;SDS011;6948;51.216;6.778;2023-03-01T03:16:43;9.70;;;8.80;;
13753;SDS011;6948;51.216;6.778;2023-03-01T03:19:10;10.80;;;8.50;;
13753;SDS011;6948;51.216;6.778;2023-03-01T03:21:36;11.53;;;8.90;;
13753;SDS011;6948;51.216;6.778;2023-03-01T03:24:02;10.33;;;8.83;;
13753;SDS011;6948;51.216;6.778;2023-03-01T03:26:28;11.33;;;8.83;;
13753;SDS011;6948;51.216;6.778;2023-03-01T03:28:55;10.83;;;8.67;;
13753;SDS011;6948;51.216;6.778;2023-03-01T03:31:21;10.60;;;8.80;;
13753;SDS011;6948;51.216;6.778;2023-03-01T03:33:47;10.93;;;8.40;;
13753;SDS011;6948;51.216;6.778;2023-03-01T03:36:16;10.80;;;8.67;;
13753;SDS011;6948;51.216;6.778;2023-03-01T03:38:42;10.73;;;8.70;;
13753;SDS011;6948;51.216;6.778;2023-03-01T03:41:09;10.20;;;9.07;;
13753;SDS011;6948;51.216;6.778;2023-03-01T03:43:36;10.10;;;8.80;;
13753;SDS011;6948;51.216;6.778;2023-03-01T03:46:03;11.47;;;9.53;;
13753;SDS011;6948;51.216;6.778;2023-03-01T03:48:31;10.10;;;9.07;;
13753;SDS011;6948;51.216;6.778;2023-03-01T03:50:57;9.77;;;8.73;;
13753;SDS011;6948;51.216;6.778;2023-03-01T03:53:24;12.33;;;9.43;;
13753;SDS011;6948;51.216;6.778;2023-03-01T03:55:50;13.60;;;9.80;;
13753;SDS011;6948;51.216;6.778;2023-03-01T03:58:17;10.57;;;8.97;;
13753;SDS011;6948;51.216;6.778;2023-03-01T04:00:45;12.37;;;9.57;;
13753;SDS011;6948;51.216;6.778;2023-03-01T04:03:12;10.43;;;9.33;;
13753;SDS011;6948;51.216;6.778;2023-03-01T04:05:38;11.17;;;8.97;;
13753;SDS011;6948;51.216;6.778;2023-03-01T04:08:05;13.00;;;9.03;;
13753;SDS011;6948;51.216;6.778;2023-03-01T04:10:34;10.57;;;9.47;;
13753;SDS011;6948;51.216;6.778;2023-03-01T04:13:01;10.27;;;9.27;;
13753;SDS011;6948;51.216;6.778;2023-03-01T04:15:28;11.13;;;9.20;;
13753;SDS011;6948;51.216;6.778;2023-03-01T04:17:54;11.37;;;10.03;;
13753;SDS011;6948;51.216;6.778;2023-03-01T04:20:23;10.43;;;9.37;;
13753;SDS011;6948;51.216;6.778;2023-03-01T04:22:49;11.03;;;9.37;;
13753;SDS011;6948;51.216;6.778;2023-03-01T04:25:16;12.43;;;10.40;;
13753;SDS011;6948;51.216;6.778;2023-03-01T04:27:42;11.37;;;9.87;;
13753;SDS011;6948;51.216;6.778;2023-03-01T04:30:08;12.67;;;9.50;;
13753;SDS011;6948;51.216;6.778;2023-03-01T04:32:35;11.43;;;10.10;;
13753;SDS011;6948;51.216;6.778;2023-03-01T04:35:01;10.13;;;8.90;;
13753;SDS011;6948;51.216;6.778;2023-03-01T04:37:27;10.60;;;9.50;;
13753;SDS011;6948;51.216;6.778;2023-03-01T04:39:54;10.97;;;9.47;;
13753;SDS011;6948;51.216;6.778;2023-03-01T04:42:20;10.20;;;9.17;;
13753;SDS011;6948;51.216;6.778;2023-03-01T04:44:46;12.23;;;9.60;;
13753;SDS011;6948;51.216;6.778;2023-03-01T04:47:12;10.30;;;9.13;;
13753;SDS011;6948;51.216;6.778;2023-03-01T04:49:38;11.10;;;9.70;;
13753;SDS011;6948;51.216;6.778;2023-03-01T04:52:05;10.43;;;9.33;;
13753;SDS011;6948;51.216;6.778;2023-03-01T04:54:31;13.67;;;10.43;;
13753;SDS011;6948;51.216;6.778;2023-03-01T04:56:58;11.70;;;10.07;;
13753;SDS011;6948;51.216;6.778;2023-03-01T04:59:24;11.03;;;9.63;;
13753;SDS011;6948;51.216;6.778;2023-03-01T05:01:50;10.83;;;9.53;;
13753;SDS011;6948;51.216;6.778;2023-03-01T05:04:16;12.57;;;9.37;;
13753;SDS011;6948;51.216;6.778;2023-03-01T05:06:43;10.97;;;9.87;;
13753;SDS011;6948;51.216;6.778;2023-03-01T05:09:09;12.20;;;9.97;;
13753;SDS011;6948;51.216;6.778;2023-03-01T05:11:36;13.00;;;9.43;;
13753;SDS011;6948;51.216;6.778;2023-03-01T05:14:03;12.10;;;9.80;;
13753;SDS011;6948;51.216;6.778;2023-03-01T05:16:29;10.93;;;9.87;;
13753;SDS011;6948;51.216;6.778;2023-03-01T05:18:56;13.03;;;10.57;;
13753;SDS011;6948;51.216;6.778;2023-03-01T05:21:22;12.40;;;10.40;;
13753;SDS011;6948;51.216;6.778;2023-03-01T05:23:48;11.77;;;10.60;;
13753;SDS011;6948;51.216;6.778;2023-03-01T05:26:14;14.33;;;11.10;;
13753;SDS011;6948;51.216;6.778;2023-03-01T05:28:40;12.13;;;10.27;;
13753;SDS011;6948;51.216;6.778;2023-03-01T05:31:07;12.73;;;9.77;;
13753;SDS011;6948;51.216;6.778;2023-03-01T05:33:35;11.83;;;10.37;;
13753;SDS011;6948;51.216;6.778;2023-03-01T05:36:02;11.07;;;9.70;;
13753;SDS011;6948;51.216;6.778;2023-03-01T05:38:28;12.50;;;11.20;;
13753;SDS011;6948;51.216;6.778;2023-03-01T05:40:54;13.30;;;10.87;;
13753;SDS011;6948;51.216;6.778;2023-03-01T05:43:20;12.00;;;10.70;;
13753;SDS011;6948;51.216;6.778;2023-03-01T05:45:46;12.97;;;10.83;;
13753;SDS011;6948;51.216;6.778;2023-03-01T05:48:12;12.50;;;10.90;;
13753;SDS011;6948;51.216;6.778;2023-03-01T05:50:40;14.07;;;11.30;;
13753;SDS011;6948;51.216;6.778;2023-03-01T05:53:07;14.43;;;10.90;;
13753;SDS011;6948;51.216;6.778;2023-03-01T05:55:35;12.77;;;11.43;;
13753;SDS011;6948;51.216;6.778;2023-03-01T05:58:02;14.50;;;11.63;;
13753;SDS011;6948;51.216;6.778;2023-03-01T06:00:29;13.37;;;11.83;;
13753;SDS011;6948;51.216;6.778;2023-03-01T06:02:56;13.87;;;11.20;;
13753;SDS011;6948;51.216;6.778;2023-03-01T06:05:22;14.27;;;11.70;;
13753;SDS011;6948;51.216;6.778;2023-03-01T06:07:49;14.37;;;11.23;;
13753;SDS011;6948;51.216;6.778;2023-03-01T06:10:15;14.30;;;12.00;;
13753;SDS011;6948;51.216;6.778;2023-03-01T06:18:31;15.43;;;11.87;;
13753;SDS011;6948;51.216;6.778;2023-03-01T06:20:57;13.60;;;11.53;;
13753;SDS011;6948;51.216;6.778;2023-03-01T06:23:23;14.20;;;11.20;;
13753;SDS011;6948;51.216;6.778;2023-03-01T06:25:50;14.27;;;11.47;;
13753;SDS011;6948;51.216;6.778;2023-03-01T06:28:16;13.37;;;11.73;;
13753;SDS011;6948;51.216;6.778;2023-03-01T06:30:42;14.33;;;11.50;;
13753;SDS011;6948;51.216;6.778;2023-03-01T06:33:08;15.80;;;12.13;;
13753;SDS011;6948;51.216;6.778;2023-03-01T06:35:34;14.20;;;12.00;;
13753;SDS011;6948;51.216;6.778;2023-03-01T06:38:01;13.60;;;11.93;;
13753;SDS011;6948;51.216;6.778;2023-03-01T06:40:27;14.23;;;12.73;;
13753;SDS011;6948;51.216;6.778;2023-03-01T06:42:53;16.67;;;12.67;;
13753;SDS011;6948;51.216;6.778;2023-03-01T06:45:20;16.33;;;12.37;;
13753;SDS011;6948;51.216;6.778;2023-03-01T06:47:46;14.37;;;11.80;;
13753;SDS011;6948;51.216;6.778;2023-03-01T06:50:13;16.13;;;11.90;;
13753;SDS011;6948;51.216;6.778;2023-03-01T06:52:39;16.27;;;12.63;;
13753;SDS011;6948;51.216;6.778;2023-03-01T06:55:05;15.83;;;12.63;;
13753;SDS011;6948;51.216;6.778;2023-03-01T06:57:31;16.00;;;12.40;;
13753;SDS011;6948;51.216;6.778;2023-03-01T06:59:58;18.80;;;12.20;;
13753;SDS011;6948;51.216;6.778;2023-03-01T07:02:24;14.90;;;12.27;;
13753;SDS011;6948;51.216;6.778;2023-03-01T07:04:50;15.67;;;12.43;;
13753;SDS011;6948;51.216;6.778;2023-03-01T07:07:16;16.87;;;12.67;;
13753;SDS011;6948;51.216;6.778;2023-03-01T07:09:43;13.57;;;11.97;;
13753;SDS011;6948;51.216;6.778;2023-03-01T07:12:09;14.27;;;12.37;;
13753;SDS011;6948;51.216;6.778;2023-03-01T07:14:35;14.50;;;12.60;;
13753;SDS011;6948;51.216;6.778;2023-03-01T07:17:01;16.93;;;12.60;;
13753;SDS011;6948;51.216;6.778;2023-03-01T07:19:27;15.00;;;12.53;;
13753;SDS011;6948;51.216;6.778;2023-03-01T07:21:53;14.50;;;12.17;;
13753;SDS011;6948;51.216;6.778;2023-03-01T07:24:20;14.57;;;12.93;;
13753;SDS011;6948;51.216;6.778;2023-03-01T07:26:48;15.63;;;12.13;;
13753;SDS011;6948;51.216;6.778;2023-03-01T07:29:15;14.40;;;12.73;;
13753;SDS011;6948;51.216;6.778;2023-03-01T07:31:41;13.60;;;11.83;;
13753;SDS011;6948;51.216;6.778;2023-03-01T07:34:07;15.77;;;12.13;;
13753;SDS011;6948;51.216;6.778;2023-03-01T07:36:33;16.37;;;12.60;;
13753;SDS011;6948;51.216;6.778;2023-03-01T07:38:59;15.73;;;11.93;;
13753;SDS011;6948;51.216;6.778;2023-03-01T07:41:27;14.20;;;11.10;;
13753;SDS011;6948;51.216;6.778;2023-03-01T07:43:53;15.77;;;12.50;;
13753;SDS011;6948;51.216;6.778;2023-03-01T07:46:19;15.63;;;13.00;;
13753;SDS011;6948;51.216;6.778;2023-03-01T07:48:45;16.77;;;12.63;;
13753;SDS011;6948;51.216;6.778;2023-03-01T07:51:11;17.30;;;13.97;;
13753;SDS011;6948;51.216;6.778;2023-03-01T07:53:37;16.57;;;13.53;;
13753;SDS011;6948;51.216;6.778;2023-03-01T07:56:04;14.90;;;12.23;;
13753;SDS011;6948;51.216;6.778;2023-03-01T07:58:31;15.07;;;13.00;;
13753;SDS011;6948;51.216;6.778;2023-03-01T08:01:01;17.10;;;12.57;;
13753;SDS011;6948;51.216;6.778;2023-03-01T08:03:27;15.57;;;12.80;;
13753;SDS011;6948;51.216;6.778;2023-03-01T08:05:53;14.67;;;11.93;;
13753;SDS011;6948;51.216;6.778;2023-03-01T08:08:19;15.33;;;12.87;;
13753;SDS011;6948;51.216;6.778;2023-03-01T08:10:45;15.33;;;12.17;;
13753;SDS011;6948;51.216;6.778;2023-03-01T08:13:11;15.07;;;12.23;;
13753;SDS011;6948;51.216;6.778;2023-03-01T08:15:37;14.37;;;12.87;;
13753;SDS011;6948;51.216;6.778;2023-03-01T08:18:03;14.03;;;12.53;;
13753;SDS011;6948;51.216;6.778;2023-03-01T08:20:31;14.50;;;13.00;;
13753;SDS011;6948;51.216;6.778;2023-03-01T08:22:57;14.87;;;12.17;;
13753;SDS011;6948;51.216;6.778;2023-03-01T08:25:23;14.83;;;11.93;;
13753;SDS011;6948;51.216;6.778;2023-03-01T08:27:49;14.27;;;12.33;;
13753;SDS011;6948;51.216;6.778;2023-03-01T08:30:15;13.53;;;12.00;;
13753;SDS011;6948;51.216;6.778;2023-03-01T08:32:41;13.53;;;12.13;;
13753;SDS011;6948;51.216;6.778;2023-03-01T08:35:07;14.83;;;12.20;;
13753;SDS011;6948;51.216;6.778;2023-03-01T08:37:34;15.20;;;12.17;;
13753;SDS011;6948;51.216;6.778;2023-03-01T08:40:00;13.23;;;11.83;;
13753;SDS011;6948;51.216;6.778;2023-03-01T08:42:26;13.93;;;12.20;;
13753;SDS011;6948;51.216;6.778;2023-03-01T08:44:52;14.90;;;11.67;;
13753;SDS011;6948;51.216;6.778;2023-03-01T08:47:18;14.20;;;12.70;;
13753;SDS011;6948;51.216;6.778;2023-03-01T08:49:44;13.70;;;12.30;;
13753;SDS011;6948;51.216;6.778;2023-03-01T08:52:10;15.73;;;12.23;;
13753;SDS011;6948;51.216;6.778;2023-03-01T08:54:36;15.47;;;12.40;;
13753;SDS011;6948;51.216;6.778;2023-03-01T08:57:02;15.17;;;12.33;;
13753;SDS011;6948;51.216;6.778;2023-03-01T08:59:28;13.90;;;11.90;;
13753;SDS011;6948;51.216;6.778;2023-03-01T09:01:55;13.93;;;12.27;;
13753;SDS011;6948;51.216;6.778;2023-03-01T09:04:21;13.70;;;12.30;;
13753;SDS011;6948;51.216;6.778;2023-03-01T09:06:47;16.33;;;12.73;;
13753;SDS011;6948;51.216;6.778;2023-03-01T09:09:14;14.00;;;12.10;;
13753;SDS011;6948;51.216;6.778;2023-03-01T09:11:41;17.63;;;13.07;;
13753;SDS011;6948;51.216;6.778;2023-03-01T09:14:08;15.40;;;12.77;;
13753;SDS011;6948;51.216;6.778;2023-03-01T09:16:34;13.87;;;11.60;;
13753;SDS011;6948;51.216;6.778;2023-03-01T09:19:01;15.63;;;12.13;;
13753;SDS011;6948;51.216;6.778;2023-03-01T09:21:27;13.57;;;12.10;;
13753;SDS011;6948;51.216;6.778;2023-03-01T09:23:55;16.23;;;12.53;;
13753;SDS011;6948;51.216;6.778;2023-03-01T09:26:22;12.80;;;11.50;;
13753;SDS011;6948;51.216;6.778;2023-03-01T09:28:48;13.17;;;11.70;;
13753;SDS011;6948;51.216;6.778;2023-03-01T09:31:15;14.40;;;11.17;;
13753;SDS011;6948;51.216;6.778;2023-03-01T09:33:42;13.20;;;11.30;;
13753;SDS011;6948;51.216;6.778;2023-03-01T09:36:11;12.27;;;10.93;;
13753;SDS011;6948;51.216;6.778;2023-03-01T09:38:37;12.80;;;10.87;;
13753;SDS011;6948;51.216;6.778;2023-03-01T09:41:09;13.40;;;10.90;;
13753;SDS011;6948;51.216;6.778;2023-03-01T09:43:44;14.37;;;11.57;;
13753;SDS011;6948;51.216;6.778;2023-03-01T09:46:12;13.07;;;10.80;;
13753;SDS011;6948;51.216;6.778;2023-03-01T09:48:42;12.40;;;10.53;;
13753;SDS011;6948;51.216;6.778;2023-03-01T09:51:12;13.93;;;11.77;;
13753;SDS011;6948;51.216;6.778;2023-03-01T09:53:41;14.53;;;11.57;;
13753;SDS011;6948;51.216;6.778;2023-03-01T09:56:17;13.10;;;10.63;;
13753;SDS011;6948;51.216;6.778;2023-03-01T09:58:51;14.80;;;11.10;;
13753;SDS011;6948;51.216;6.778;2023-03-01T10:01:35;14.47;;;11.47;;
13753;SDS011;6948;51.216;6.778;2023-03-01T10:06:51;14.03;;;11.63;;
13753;SDS011;6948;51.216;6.778;2023-03-01T10:09:20;14.23;;;11.13;;
13753;SDS011;6948;51.216;6.778;2023-03-01T10:11:48;12.63;;;11.33;;
13753;SDS011;6948;51.216;6.778;2023-03-01T10:16:54;13.13;;;10.70;;
13753;SDS011;6948;51.216;6.778;2023-03-01T10:19:29;12.33;;;10.80;;
13753;SDS011;6948;51.216;6.778;2023-03-01T10:21:57;12.50;;;10.70;;
13753;SDS011;6948;51.216;6.778;2023-03-01T10:24:26;15.30;;;11.07;;
13753;SDS011;6948;51.216;6.778;2023-03-01T10:26:54;12.87;;;10.57;;
13753;SDS011;6948;51.216;6.778;2023-03-01T10:29:26;12.00;;;10.70;;
13753;SDS011;6948;51.216;6.778;2023-03-01T10:31:53;13.50;;;10.80;;
13753;SDS011;6948;51.216;6.778;2023-03-01T10:37:01;13.30;;;10.60;;
13753;SDS011;6948;51.216;6.778;2023-03-01T10:39:27;12.37;;;10.03;;
13753;SDS011;6948;51.216;6.778;2023-03-01T10:41:55;13.33;;;10.27;;
13753;SDS011;6948;51.216;6.778;2023-03-01T10:47:12;13.40;;;10.97;;
13753;SDS011;6948;51.216;6.778;2023-03-01T10:49:38;16.47;;;11.73;;
13753;SDS011;6948;51.216;6.778;2023-03-01T10:52:21;14.80;;;11.30;;
13753;SDS011;6948;51.216;6.778;2023-03-01T10:54:51;12.63;;;10.87;;
13753;SDS011;6948;51.216;6.778;2023-03-01T10:57:35;13.00;;;10.93;;
13753;SDS011;6948;51.216;6.778;2023-03-01T11:02:48;14.00;;;11.50;;
13753;SDS011;6948;51.216;6.778;2023-03-01T11:05:17;13.57;;;11.17;;
13753;SDS011;6948;51.216;6.778;2023-03-01T11:07:48;12.53;;;11.23;;
13753;SDS011;6948;51.216;6.778;2023-03-01T11:10:17;13.20;;;10.63;;
13753;SDS011;6948;51.216;6.778;2023-03-01T11:12:43;11.93;;;10.50;;
13753;SDS011;6948;51.216;6.778;2023-03-01T11:15:16;13.13;;;10.67;;
13753;SDS011;6948;51.216;6.778;2023-03-01T11:17:45;16.50;;;11.27;;
13753;SDS011;6948;51.216;6.778;2023-03-01T11:22:56;13.93;;;11.07;;
13753;SDS011;6948;51.216;6.778;2023-03-01T11:25:25;13.17;;;11.20;;
13753;SDS011;6948;51.216;6.778;2023-03-01T11:27:52;13.77;;;11.73;;
13753;SDS011;6948;51.216;6.778;2023-03-01T11:33:11;13.30;;;10.90;;
13753;SDS011;6948;51.216;6.778;2023-03-01T11:35:43;16.30;;;10.90;;
13753;SDS011;6948;51.216;6.778;2023-03-01T11:38:20;12.50;;;10.77;;
13753;SDS011;6948;51.216;6.778;2023-03-01T11:40:47;11.57;;;10.37;;
13753;SDS011;6948;51.216;6.778;2023-03-01T11:51:50;12.17;;;10.80;;
13753;SDS011;6948;51.216;6.778;2023-03-01T11:54:20;11.77;;;10.53;;
13753;SDS011;6948;51.216;6.778;2023-03-01T11:56:52;14.20;;;10.60;;
13753;SDS011;6948;51.216;6.778;2023-03-01T11:59:25;13.40;;;10.20;;
13753;SDS011;6948;51.216;6.778;2023-03-01T12:02:09;11.93;;;10.37;;
13753;SDS011;6948;51.216;6.778;2023-03-01T12:04:55;11.00;;;9.60;;
13753;SDS011;6948;51.216;6.778;2023-03-01T12:07:41;11.73;;;10.53;;
13753;SDS011;6948;51.216;6.778;2023-03-01T12:10:15;13.57;;;10.50;;
13753;SDS011;6948;51.216;6.778;2023-03-01T12:12:48;13.00;;;9.77;;
13753;SDS011;6948;51.216;6.778;2023-03-01T12:21:14;10.87;;;9.37;;
13753;SDS011;6948;51.216;6.778;2023-03-01T12:26:32;11.60;;;9.10;;
13753;SDS011;6948;51.216;6.778;2023-03-01T12:37:36;11.10;;;8.90;;
13753;SDS011;6948;51.216;6.778;2023-03-01T12:48:25;12.90;;;8.57;;
13753;SDS011;6948;51.216;6.778;2023-03-01T12:50:55;13.20;;;8.10;;
13753;SDS011;6948;51.216;6.778;2023-03-01T12:53:28;9.60;;;8.10;;
13753;SDS011;6948;51.216;6.778;2023-03-01T12:55:56;10.83;;;8.07;;
13753;SDS011;6948;51.216;6.778;2023-03-01T12:58:28;10.10;;;8.27;;
13753;SDS011;6948;51.216;6.778;2023-03-01T13:04:02;10.70;;;7.80;;
13753;SDS011;6948;51.216;6.778;2023-03-01T13:09:19;8.37;;;7.57;;
13753;SDS011;6948;51.216;6.778;2023-03-01T13:11:46;13.20;;;8.03;;
13753;SDS011;6948;51.216;6.778;2023-03-01T13:16:58;10.17;;;8.23;;
13753;SDS011;6948;51.216;6.778;2023-03-01T13:19:28;10.43;;;8.27;;
13753;SDS011;6948;51.216;6.778;2023-03-01T13:21:55;10.73;;;8.00;;
13753;SDS011;6948;51.216;6.778;2023-03-01T13:29:44;9.73;;;7.90;;
13753;SDS011;6948;51.216;6.778;2023-03-01T13:32:18;10.60;;;7.60;;
13753;SDS011;6948;51.216;6.778;2023-03-01T13:34:46;9.43;;;7.63;;
13753;SDS011;6948;51.216;6.778;2023-03-01T13:37:18;9.03;;;8.03;;
13753;SDS011;6948;51.216;6.778;2023-03-01T13:39:44;8.90;;;7.73;;
13753;SDS011;6948;51.216;6.778;2023-03-01T13:44:57;9.93;;;8.17;;
13753;SDS011;6948;51.216;6.778;2023-03-01T13:47:23;8.63;;;7.27;;
13753;SDS011;6948;51.216;6.778;2023-03-01T13:49:57;9.97;;;7.73;;
13753;SDS011;6948;51.216;6.778;2023-03-01T13:52:30;9.27;;;8.00;;
13753;SDS011;6948;51.216;6.778;2023-03-01T13:54:58;9.87;;;7.47;;
13753;SDS011;6948;51.216;6.778;2023-03-01T13:57:28;9.87;;;8.17;;
13753;SDS011;6948;51.216;6.778;2023-03-01T13:59:55;8.50;;;7.43;;
13753;SDS011;6948;51.216;6.778;2023-03-01T14:02:21;11.73;;;7.67;;
13753;SDS011;6948;51.216;6.778;2023-03-01T14:04:56;11.90;;;7.97;;
13753;SDS011;6948;51.216;6.778;2023-03-01T14:07:23;10.33;;;8.00;;
13753;SDS011;6948;51.216;6.778;2023-03-01T14:09:52;10.67;;;7.93;;
13753;SDS011;6948;51.216;6.778;2023-03-01T14:20:32;10.80;;;8.07;;
13753;SDS011;6948;51.216;6.778;2023-03-01T14:23:01;9.20;;;7.90;;
13753;SDS011;6948;51.216;6.778;2023-03-01T14:25:29;9.27;;;7.90;;
13753;SDS011;6948;51.216;6.778;2023-03-01T14:27:57;8.83;;;7.53;;
13753;SDS011;6948;51.216;6.778;2023-03-01T14:30:25;11.47;;;7.90;;
13753;SDS011;6948;51.216;6.778;2023-03-01T14:32:54;10.97;;;7.73;;
13753;SDS011;6948;51.216;6.778;2023-03-01T14:35:23;9.83;;;7.50;;
13753;SDS011;6948;51.216;6.778;2023-03-01T14:37:49;10.03;;;7.97;;
13753;SDS011;6948;51.216;6.778;2023-03-01T14:43:08;10.20;;;8.00;;
13753;SDS011;6948;51.216;6.778;2023-03-01T14:45:35;11.23;;;8.17;;
13753;SDS011;6948;51.216;6.778;2023-03-01T14:48:02;11.33;;;8.70;;
13753;SDS011;6948;51.216;6.778;2023-03-01T14:50:29;10.00;;;8.17;;
13753;SDS011;6948;51.216;6.778;2023-03-01T14:52:57;9.13;;;8.23;;
13753;SDS011;6948;51.216;6.778;2023-03-01T14:55:26;10.77;;;8.30;;
13753;SDS011;6948;51.216;6.778;2023-03-01T14:57:52;10.70;;;8.13;;
13753;SDS011;6948;51.216;6.778;2023-03-01T15:00:20;15.73;;;7.93;;
13753;SDS011;6948;51.216;6.778;2023-03-01T15:02:47;10.77;;;7.57;;
13753;SDS011;6948;51.216;6.778;2023-03-01T15:05:14;10.07;;;7.80;;
13753;SDS011;6948;51.216;6.778;2023-03-01T15:07:42;11.70;;;8.63;;
13753;SDS011;6948;51.216;6.778;2023-03-01T15:10:17;11.93;;;8.77;;
13753;SDS011;6948;51.216;6.778;2023-03-01T15:12:45;13.37;;;8.47;;
13753;SDS011;6948;51.216;6.778;2023-03-01T15:15:35;9.60;;;7.83;;
13753;SDS011;6948;51.216;6.778;2023-03-01T15:17:58;10.07;;;6.93;;
13753;SDS011;6948;51.216;6.778;2023-03-01T15:20:25;12.23;;;8.50;;
13753;SDS011;6948;51.216;6.778;2023-03-01T15:22:53;10.10;;;7.87;;
13753;SDS011;6948;51.216;6.778;2023-03-01T15:25:22;14.23;;;8.50;;
13753;SDS011;6948;51.216;6.778;2023-03-01T15:27:49;12.80;;;8.17;;
13753;SDS011;6948;51.216;6.778;2023-03-01T15:30:19;14.23;;;7.70;;
13753;SDS011;6948;51.216;6.778;2023-03-01T15:32:46;9.60;;;7.93;;
13753;SDS011;6948;51.216;6.778;2023-03-01T15:37:58;8.77;;;7.30;;
13753;SDS011;6948;51.216;6.778;2023-03-01T15:40:29;10.73;;;7.67;;
13753;SDS011;6948;51.216;6.778;2023-03-01T15:43:00;9.67;;;7.93;;
13753;SDS011;6948;51.216;6.778;2023-03-01T15:45:27;8.80;;;7.50;;
13753;SDS011;6948;51.216;6.778;2023-03-01T15:47:55;9.27;;;7.83;;
13753;SDS011;6948;51.216;6.778;2023-03-01T15:53:00;10.53;;;7.33;;
13753;SDS011;6948;51.216;6.778;2023-03-01T15:55:27;9.57;;;7.67;;
13753;SDS011;6948;51.216;6.778;2023-03-01T16:00:34;9.87;;;6.97;;
13753;SDS011;6948;51.216;6.778;2023-03-01T16:03:00;7.60;;;6.80;;
13753;SDS011;6948;51.216;6.778;2023-03-01T16:08:02;9.63;;;7.10;;
13753;SDS011;6948;51.216;6.778;2023-03-01T16:10:30;8.27;;;6.90;;
13753;SDS011;6948;51.216;6.778;2023-03-01T16:12:56;7.10;;;6.07;;
13753;SDS011;6948;51.216;6.778;2023-03-01T16:15:23;11.03;;;7.17;;
13753;SDS011;6948;51.216;6.778;2023-03-01T16:17:50;9.53;;;6.70;;
13753;SDS011;6948;51.216;6.778;2023-03-01T16:20:17;8.60;;;6.80;;
13753;SDS011;6948;51.216;6.778;2023-03-01T16:22:43;8.23;;;7.30;;
13753;SDS011;6948;51.216;6.778;2023-03-01T16:25:11;10.00;;;7.20;;
13753;SDS011;6948;51.216;6.778;2023-03-01T16:27:37;10.77;;;7.43;;
13753;SDS011;6948;51.216;6.778;2023-03-01T16:30:04;7.67;;;6.87;;
13753;SDS011;6948;51.216;6.778;2023-03-01T16:32:30;9.00;;;7.23;;
13753;SDS011;6948;51.216;6.778;2023-03-01T16:34:56;10.07;;;6.93;;